Latest Weather Observations for Centre Island

IDD60801

Issued at 5:11 am CST Friday 30 October 2020 (issued every 10 minutes, with the page automatically refreshed every 10 minutes)

About weather observations | Map of weather stations | Latest weather observations for NT | Other Formats
Station Details ID: 014703 Name: CENTRE ISLAND Lat: -15.74 Lon: 136.82 Height: 12.2 m
Data from the previous 72 hours. | See also: Recent months at Centre Island
Date/Time
CST
Temp
°C
App
Temp
°C
Dew
Point
°C
Rel
Hum
%
Delta-T
°C
Wind Press
QNH
hPa
Press
MSL
hPa
Rain since
9am
mm
Dir  Spd
km/h
Gust
km/h
Spd
kts
Gust
kts
30/05:00am 24.6 27.7 22.1 86 1.7 WNW 9 11 5 6 1010.2 1010.1 0.0
30/04:30am 24.9 27.7 21.6 82 2.2 SW 9 11 5 6 1010.2 1010.1 0.0
30/04:00am 25.4 27.9 22.5 84 2.0 SSW 13 15 7 8 1010.1 1010.0 0.0
30/03:30am 24.4 28.2 21.7 85 1.8 WNW 4 6 2 3 1010.0 1009.9 0.0
30/03:00am 24.2 28.1 20.3 79 2.5 CALM 0 0 0 0 1010.2 1010.1 0.0
30/02:30am 24.3 27.0 20.2 78 2.7 WNW 6 6 3 3 1010.0 1009.9 0.0
30/02:00am 24.7 26.6 19.8 74 3.2 NW 9 9 5 5 1009.9 1009.8 0.0
30/01:30am 25.0 27.2 20.3 75 3.1 NW 9 11 5 6 1010.2 1010.1 0.0
30/01:00am 25.1 27.2 20.1 74 3.2 NNW 9 11 5 6 1010.3 1010.2 0.0
30/12:30am 25.2 27.4 20.5 75 3.1 NW 9 11 5 6 1010.6 1010.5 0.0
30/12:00am 25.6 27.3 20.2 72 3.5 NNW 11 13 6 7 1010.7 1010.6 0.0
 
Date/Time
CST
Temp
°C
App
Temp
°C
Dew
Point
°C
Rel
Hum
%
Delta-T
°C
Wind Press
QNH
hPa
Press
MSL
hPa
Rain since
9am
mm
Dir  Spd
km/h
Gust
km/h
Spd
kts
Gust
kts
29/11:30pm 25.7 28.1 20.0 71 3.7 NNW 7 11 4 6 1011.1 1011.0 0.0
29/11:00pm 25.8 29.8 20.6 73 3.4 CALM 0 0 0 0 1011.6 1011.5 0.0
29/10:30pm 25.9 27.9 20.0 70 3.8 NNW 9 13 5 7 1011.3 1011.2 0.0
29/10:00pm 26.3 28.2 19.7 67 4.3 N 9 13 5 7 1011.3 1011.2 0.0
29/09:30pm 26.3 28.0 19.4 66 4.5 NNW 9 11 5 6 1011.2 1011.1 0.0
29/09:00pm 26.5 28.6 19.4 65 4.6 N 7 11 4 6 1011.2 1011.1 0.0
29/08:30pm 27.4 28.9 19.7 63 5.0 N 11 17 6 9 1011.0 1010.9 0.0
29/08:00pm 27.7 28.9 19.8 62 5.1 N 13 17 7 9 1010.7 1010.6 0.0
29/07:30pm 28.0 28.4 19.8 61 5.4 N 17 24 9 13 1010.5 1010.4 0.0
29/07:00pm 28.6 27.7 19.0 56 6.2 NNE 22 30 12 16 1010.1 1010.0 0.0
29/06:30pm 28.7 27.1 19.1 56 6.2 NNE 26 33 14 18 1009.7 1009.6 0.0
29/06:00pm 29.1 27.2 19.4 55 6.3 NE 28 37 15 20 1009.2 1009.1 0.0
29/05:30pm 29.7 27.7 19.1 53 6.9 NE 28 35 15 19 1009.3 1009.2 0.0
29/05:00pm 30.3 27.9 19.0 50 7.3 NE 30 37 16 20 1009.4 1009.3 0.0
29/04:30pm 30.7 28.9 18.8 49 7.7 NE 26 35 14 19 1009.5 1009.4 0.0
29/04:00pm 31.4 29.8 19.1 48 8.0 NNE 26 32 14 17 1009.7 1009.6 0.0
29/03:30pm 31.7 29.9 18.7 46 8.4 NE 26 33 14 18 1010.0 1009.9 0.0
29/03:00pm 32.3 30.9 18.8 44 8.8 NE 24 32 13 17 1010.3 1010.2 0.0
29/02:30pm 32.0 30.3 18.9 45 8.5 NNE 26 33 14 18 1010.5 1010.4 0.0
29/02:00pm 34.5 32.5 15.4 32 11.9 ENE 20 26 11 14 1010.8 1010.7 0.0
29/01:30pm 34.7 32.0 13.5 28 12.9 ENE 20 24 11 13 1011.2 1011.1 0.0
29/01:00pm 34.3 31.8 14.2 29 12.3 E 20 24 11 13 1011.8 1011.7 0.0
29/12:30pm 33.5 30.0 14.5 31 11.7 ESE 26 30 14 16 1012.5 1012.4 0.0
29/12:00pm 33.6 29.8 13.6 29 12.1 ESE 26 32 14 17 1013.0 1012.9 0.0
29/11:30am 32.9 28.5 13.0 30 11.9 ESE 28 32 15 17 1013.5 1013.4 0.0
29/11:00am 32.5 28.3 14.6 34 11.0 ESE 30 35 16 19 1013.8 1013.7 0.0
29/10:30am 31.5 26.7 15.5 38 9.9 ESE 35 39 19 21 1014.1 1014.0 0.0
29/10:00am 31.5 26.6 14.2 35 10.5 ESE 33 41 18 22 1014.6 1014.5 0.0
29/09:30am 30.8 25.1 11.7 31 11.1 ESE 33 39 18 21 1014.8 1014.7 0.0
29/09:00am 31.0 25.9 11.9 31 11.2 SE 30 33 16 18 1014.9 1014.8 0.0
29/08:30am 30.0 25.8 11.0 31 10.9 SSE 24 32 13 17 1014.8 1014.7 0.0
29/08:00am 28.6 27.8 18.4 54 6.5 S 20 26 11 14 1014.8 1014.7 0.0
29/07:30am 28.1 27.5 18.8 57 6.0 SSE 20 26 11 14 1014.7 1014.6 0.0
29/07:00am 27.5 26.1 18.8 59 5.6 SSE 24 30 13 16 1014.3 1014.2 0.0
29/06:30am 26.9 25.5 18.7 60 5.2 SSE 24 28 13 15 1013.7 1013.6 0.0
29/06:00am 26.4 25.3 19.5 66 4.5 S 24 26 13 14 1013.4 1013.3 0.0
29/05:30am 26.4 25.9 20.7 71 3.7 S 24 28 13 15 1013.0 1012.9 0.0
29/05:00am 26.1 26.5 20.9 73 3.4 S 20 24 11 13 1012.6 1012.5 0.0
29/04:30am 26.3 27.1 21.7 76 3.1 S 20 22 11 12 1012.3 1012.2 0.0
29/04:00am 26.1 26.8 21.5 76 3.1 S 20 22 11 12 1011.8 1011.7 0.0
29/03:30am 25.9 25.7 21.3 76 3.0 S 24 39 13 21 1011.4 1011.3 0.0
29/03:22am 26.1 25.6 22.2 79 2.6 S 28 39 15 21 1011.6 1011.5 0.0
29/03:00am 25.7 29.5 22.4 82 2.2 W 6 7 3 4 1011.1 1011.0 0.0
29/02:30am 25.8 29.6 22.7 83 2.1 W 7 9 4 5 1011.4 1011.3 0.0
29/02:00am 26.0 30.9 22.3 80 2.5 CALM 0 0 0 0 1011.3 1011.2 0.0
29/01:30am 25.9 29.9 21.3 76 3.0 N 2 7 1 4 1011.5 1011.4 0.0
29/01:00am 26.0 29.4 21.7 77 2.9 WNW 6 9 3 5 1011.6 1011.5 0.0
29/12:30am 26.4 28.7 20.7 71 3.7 NNW 9 11 5 6 1012.1 1012.0 0.0
29/12:00am 28.1 29.5 21.1 65 4.7 NNE 15 19 8 10 1012.5 1012.4 0.0
 
Date/Time
CST
Temp
°C
App
Temp
°C
Dew
Point
°C
Rel
Hum
%
Delta-T
°C
Wind Press
QNH
hPa
Press
MSL
hPa
Rain since
9am
mm
Dir  Spd
km/h
Gust
km/h
Spd
kts
Gust
kts
28/11:30pm 28.0 30.5 21.8 69 4.2 NNE 11 13 6 7 1012.7 1012.6 0.0
28/11:00pm 28.0 29.5 20.6 64 4.9 ENE 13 15 7 8 1013.0 1012.9 0.0
28/10:30pm 28.1 29.4 20.1 62 5.2 NE 13 17 7 9 1013.2 1013.1 0.0
28/10:00pm 28.3 29.2 20.8 63 5.0 ENE 17 20 9 11 1013.1 1013.0 0.0
28/09:30pm 28.5 28.4 20.0 60 5.6 ENE 20 24 11 13 1012.9 1012.8 0.0
28/09:00pm 28.6 28.5 19.5 58 5.9 NE 19 26 10 14 1012.7 1012.6 0.0
28/08:30pm 28.8 29.1 20.8 62 5.3 NE 20 26 11 14 1012.3 1012.2 0.0
28/08:00pm 28.7 28.3 20.2 60 5.6 NE 22 26 12 14 1011.9 1011.8 0.0
28/07:30pm 28.9 27.8 19.5 57 6.1 NE 24 30 13 16 1011.8 1011.7 0.0
28/07:00pm 29.2 27.8 18.9 53 6.7 NE 24 32 13 17 1011.5 1011.4 0.0
28/06:30pm 29.6 27.1 17.1 47 7.9 NE 26 32 14 17 1011.1 1011.0 0.0
28/06:00pm 30.1 27.8 17.5 46 8.0 ENE 26 32 14 17 1011.0 1010.9 0.0
28/05:30pm 30.8 27.6 15.2 38 9.6 ENE 26 32 14 17 1010.9 1010.8 0.0
28/05:00pm 31.2 27.3 14.4 36 10.2 ENE 28 33 15 18 1010.8 1010.7 0.0
28/04:30pm 30.9 27.1 15.7 39 9.4 ENE 30 35 16 19 1010.9 1010.8 0.0
28/04:00pm 30.9 27.8 17.6 45 8.5 ENE 30 35 16 19 1011.0 1010.9 0.0
28/03:30pm 31.0 26.1 15.4 38 9.6 ENE 35 44 19 24 1011.2 1011.1 0.0
28/03:00pm 31.5 27.2 17.0 41 9.2 E 35 43 19 23 1011.7 1011.6 0.0
28/02:30pm 32.6 27.8 15.6 36 10.6 E 35 41 19 22 1012.1 1012.0 0.0
28/02:00pm 32.8 28.1 15.8 36 10.6 E 35 39 19 21 1012.2 1012.1 0.0
28/01:30pm 33.2 28.7 18.2 41 9.7 E 39 44 21 24 1012.7 1012.6 0.0
28/01:00pm 32.7 28.1 18.1 42 9.4 E 39 46 21 25 1013.3 1013.2 0.0
28/12:30pm 32.6 27.5 17.6 40 9.6 E 41 50 22 27 1013.7 1013.6 0.0
28/12:00pm 32.6 27.8 18.4 43 9.2 E 41 50 22 27 1014.0 1013.9 0.0
28/11:30am 32.5 26.8 17.2 40 9.7 ESE 43 52 23 28 1014.4 1014.3 0.0
28/11:00am 32.2 26.5 17.3 41 9.5 E 43 48 23 26 1014.6 1014.5 0.0
28/10:30am 32.3 28.9 18.1 42 9.2 ESE 33 39 18 21 1014.9 1014.8 0.0
28/10:00am 32.4 31.3 20.3 48 8.0 ESE 26 32 14 17 1015.0 1014.9 0.0
28/09:30am 32.1 31.3 20.0 48 8.0 SE 24 30 13 16 1014.9 1014.8 0.0
28/09:00am 31.3 31.4 21.2 55 6.8 SSE 22 28 12 15 1014.9 1014.8 0.0
28/08:30am 29.8 30.0 22.0 63 5.3 SSE 24 28 13 15 1014.6 1014.5 0.0
28/08:00am 28.8 28.3 22.1 67 4.5 SSE 28 32 15 17 1014.7 1014.6 0.0
28/07:30am 27.9 27.5 22.4 72 3.7 SSE 28 32 15 17 1014.1 1014.0 0.0
28/07:00am 27.5 26.6 23.1 77 3.0 SSE 33 39 18 21 1013.4 1013.3 0.0
28/06:30am 26.8 26.8 23.7 83 2.1 SSE 30 37 16 20 1013.0 1012.9 0.0
28/06:00am 27.0 30.0 24.6 87 1.7 SSE 17 22 9 12 1012.7 1012.6 0.0
28/05:30am 27.0 31.1 24.5 86 1.7 S 11 13 6 7 1012.2 1012.1 0.0
28/05:00am 26.8 30.5 22.6 78 2.8 SE 7 9 4 5 1011.8 1011.7 0.0
28/04:30am 26.7 30.5 22.8 79 2.6 SE 7 9 4 5 1011.6 1011.5 0.0
28/04:00am 26.7 30.4 22.3 77 3.0 SE 6 7 3 4 1011.4 1011.3 0.0
28/03:30am 26.8 32.0 22.8 79 2.7 CALM 0 6 0 3 1011.0 1010.9 0.0
28/03:00am 27.3 31.0 23.3 79 2.7 ESE 9 13 5 7 1010.9 1010.8 0.0
28/02:30am 27.2 30.6 23.4 80 2.6 E 11 13 6 7 1011.0 1010.9 0.0
28/02:00am 27.3 30.9 23.7 81 2.5 E 11 13 6 7 1011.3 1011.2 0.0
28/01:30am 27.3 30.8 23.5 80 2.6 E 11 15 6 8 1011.6 1011.5 0.0
28/01:00am 27.6 30.4 23.6 79 2.7 E 15 17 8 9 1011.7 1011.6 0.0
28/12:30am 27.7 30.1 23.7 79 2.8 ENE 17 20 9 11 1011.9 1011.8 0.0
28/12:00am 27.8 30.2 23.6 78 2.9 E 17 22 9 12 1012.0 1011.9 0.0
 
Date/Time
CST
Temp
°C
App
Temp
°C
Dew
Point
°C
Rel
Hum
%
Delta-T
°C
Wind Press
QNH
hPa
Press
MSL
hPa
Rain since
9am
mm
Dir  Spd
km/h
Gust
km/h
Spd
kts
Gust
kts
27/11:30pm 27.9 29.7 23.5 77 3.0 ENE 20 24 11 13 1012.1 1012.0 0.0
27/11:00pm 28.0 30.0 23.6 77 3.0 E 19 24 10 13 1012.1 1012.0 0.0
27/10:30pm 28.0 29.4 22.9 74 3.5 ENE 20 24 11 13 1012.1 1012.0 0.0
27/10:00pm 28.2 30.0 23.6 76 3.2 ENE 20 24 11 13 1012.0 1011.9 0.0
27/09:30pm 28.1 29.7 23.2 74 3.4 ENE 20 24 11 13 1011.6 1011.5 0.0
27/09:00pm 28.3 30.2 23.4 75 3.4 ENE 19 22 10 12 1011.5 1011.4 0.0
27/08:30pm 28.2 29.8 22.9 73 3.6 ENE 19 22 10 12 1011.1 1011.0 0.0
27/08:00pm 28.3 29.7 22.8 72 3.7 E 20 24 11 13 1010.9 1010.8 0.0
27/07:30pm 28.4 29.3 22.6 71 3.9 ENE 22 28 12 15 1010.6 1010.5 0.0
27/07:00pm 28.5 28.8 22.3 69 4.2 ENE 24 28 13 15 1010.3 1010.2 0.0
27/06:30pm 28.7 29.0 22.2 68 4.4 ENE 24 30 13 16 1010.1 1010.0 0.0
27/06:00pm 29.6 30.3 22.3 65 5.0 ENE 22 28 12 15 1009.8 1009.7 0.0
27/05:30pm 30.0 30.8 21.7 61 5.6 NE 20 26 11 14 1009.6 1009.5 0.0
27/05:00pm 31.0 31.9 21.5 57 6.4 NE 19 26 10 14 1009.5 1009.4 0.0
27/04:30pm 31.4 32.4 21.8 56 6.5 ENE 19 26 10 14 1009.2 1009.1 0.0
27/04:00pm 31.8 32.0 21.3 53 7.1 E 22 28 12 15 1009.2 1009.1 0.0
27/03:30pm 32.3 32.6 20.5 49 7.9 E 19 24 10 13 1009.1 1009.0 0.0
27/03:00pm 32.4 33.0 22.8 57 6.6 ESE 24 28 13 15 1009.2 1009.1 0.0
27/02:30pm 31.9 31.0 21.4 53 7.1 SE 28 32 15 17 1009.4 1009.3 0.0
27/02:00pm 31.7 30.9 20.9 52 7.2 SE 26 30 14 16 1009.9 1009.8 0.0
27/01:30pm 32.1 31.1 20.4 50 7.8 SE 26 30 14 16 1010.2 1010.1 0.0
27/01:00pm 32.4 31.7 21.0 51 7.7 ESE 26 30 14 16 1010.8 1010.7 0.0
27/12:30pm 31.9 30.8 19.5 47 8.2 ESE 24 30 13 16 1011.0 1010.9 0.0
27/12:00pm 32.6 30.9 19.8 46 8.5 ESE 28 35 15 19 1011.2 1011.1 0.0
27/11:30am 31.7 29.5 18.7 46 8.4 ESE 28 33 15 18 1011.6 1011.5 0.0
27/11:00am 31.7 28.9 18.3 45 8.7 ESE 30 33 16 18 1011.7 1011.6 0.0
27/10:30am 31.9 29.9 19.2 47 8.3 ESE 28 32 15 17 1011.7 1011.6 0.0
27/10:00am 30.1 28.3 17.9 48 7.8 E 24 30 13 16 1012.0 1011.9 0.0
27/09:30am 30.4 30.3 17.8 46 8.0 E 15 20 8 11 1012.3 1012.2 0.0
27/09:00am 29.8 30.0 17.6 48 7.8 ESE 13 19 7 10 1012.5 1012.4 0.0
27/08:30am 28.3 28.8 18.4 55 6.3 SE 13 19 7 10 1012.6 1012.5 0.0
27/08:00am 27.5 26.8 18.2 57 5.9 S 19 24 10 13 1012.8 1012.7 0.0
27/07:30am 27.2 26.0 19.3 62 5.1 S 24 32 13 17 1012.6 1012.5 0.0
27/07:00am 26.7 24.2 18.8 62 5.1 SSW 30 35 16 19 1012.5 1012.4 0.0
27/06:30am 26.7 24.2 18.8 62 5.1 SSW 30 35 16 19 1012.5 1012.4 0.0
27/06:00am 27.1 25.7 20.4 66 4.4 SSW 28 35 15 19 1012.3 1012.2 0.0
27/05:30am 27.2 26.3 19.8 64 4.8 S 24 30 13 16 1011.7 1011.6 0.0

Other formats

Comma delimited format used in spreadsheet applications
http://www.bom.gov.au/fwo/IDD60801/IDD60801.94248.axf

JavaScript Object Notation format (JSON) in row-major order
http://www.bom.gov.au/fwo/IDD60801/IDD60801.94248.json

Data quality

Most of these data are generated automatically and are frequently updated. Quality checks on data are not normally performed. It is possible for incorrect values to appear. Refer to information at About Latest Weather Observations and please check the disclaimer before using these data.